sensor_id;sensor_type;location;lat;lon;timestamp;P1;durP1;ratioP1;P2;durP2;ratioP2
17953;SDS011;9102;53.548;9.926;2022-10-16T00:02:13;10.20;;;7.05;;
17953;SDS011;9102;53.548;9.926;2022-10-16T00:04:40;9.25;;;6.60;;
17953;SDS011;9102;53.548;9.926;2022-10-16T00:07:07;11.15;;;6.25;;
17953;SDS011;9102;53.548;9.926;2022-10-16T00:09:34;8.10;;;5.90;;
17953;SDS011;9102;53.548;9.926;2022-10-16T00:12:02;8.65;;;5.65;;
17953;SDS011;9102;53.548;9.926;2022-10-16T00:14:31;7.05;;;5.35;;
17953;SDS011;9102;53.548;9.926;2022-10-16T00:16:58;11.05;;;5.18;;
17953;SDS011;9102;53.548;9.926;2022-10-16T00:19:25;9.07;;;4.57;;
17953;SDS011;9102;53.548;9.926;2022-10-16T00:21:52;7.38;;;4.22;;
17953;SDS011;9102;53.548;9.926;2022-10-16T00:24:18;6.13;;;3.97;;
17953;SDS011;9102;53.548;9.926;2022-10-16T00:26:45;7.28;;;3.80;;
17953;SDS011;9102;53.548;9.926;2022-10-16T00:29:17;8.10;;;4.18;;
17953;SDS011;9102;53.548;9.926;2022-10-16T00:31:44;9.00;;;3.38;;
17953;SDS011;9102;53.548;9.926;2022-10-16T00:34:11;5.15;;;2.95;;
17953;SDS011;9102;53.548;9.926;2022-10-16T00:36:37;4.53;;;3.03;;
17953;SDS011;9102;53.548;9.926;2022-10-16T00:39:04;5.47;;;2.80;;
17953;SDS011;9102;53.548;9.926;2022-10-16T00:41:31;5.43;;;2.60;;
17953;SDS011;9102;53.548;9.926;2022-10-16T00:43:59;4.10;;;2.58;;
17953;SDS011;9102;53.548;9.926;2022-10-16T00:46:31;5.45;;;2.70;;
17953;SDS011;9102;53.548;9.926;2022-10-16T00:49:03;8.80;;;2.85;;
17953;SDS011;9102;53.548;9.926;2022-10-16T00:51:43;6.72;;;3.10;;
17953;SDS011;9102;53.548;9.926;2022-10-16T00:54:13;5.40;;;2.47;;
17953;SDS011;9102;53.548;9.926;2022-10-16T00:56:43;6.85;;;2.80;;
17953;SDS011;9102;53.548;9.926;2022-10-16T00:59:11;5.90;;;2.60;;
17953;SDS011;9102;53.548;9.926;2022-10-16T01:01:43;7.45;;;2.67;;
17953;SDS011;9102;53.548;9.926;2022-10-16T01:04:10;9.07;;;2.80;;
17953;SDS011;9102;53.548;9.926;2022-10-16T01:06:38;12.57;;;3.63;;
17953;SDS011;9102;53.548;9.926;2022-10-16T01:09:14;6.13;;;2.80;;
17953;SDS011;9102;53.548;9.926;2022-10-16T01:11:49;6.13;;;2.13;;
17953;SDS011;9102;53.548;9.926;2022-10-16T01:14:26;4.82;;;2.33;;
17953;SDS011;9102;53.548;9.926;2022-10-16T01:17:00;5.63;;;2.13;;
17953;SDS011;9102;53.548;9.926;2022-10-16T01:19:43;7.72;;;2.03;;
17953;SDS011;9102;53.548;9.926;2022-10-16T01:22:24;5.85;;;2.03;;
17953;SDS011;9102;53.548;9.926;2022-10-16T01:24:58;7.28;;;1.90;;
17953;SDS011;9102;53.548;9.926;2022-10-16T01:27:32;6.05;;;2.17;;
17953;SDS011;9102;53.548;9.926;2022-10-16T01:30:03;4.68;;;1.95;;
17953;SDS011;9102;53.548;9.926;2022-10-16T01:32:36;6.72;;;2.17;;
17953;SDS011;9102;53.548;9.926;2022-10-16T01:35:07;4.95;;;1.98;;
17953;SDS011;9102;53.548;9.926;2022-10-16T01:37:38;5.60;;;2.00;;
17953;SDS011;9102;53.548;9.926;2022-10-16T01:40:09;3.80;;;2.03;;
17953;SDS011;9102;53.548;9.926;2022-10-16T01:42:40;5.00;;;2.03;;
17953;SDS011;9102;53.548;9.926;2022-10-16T01:45:11;6.85;;;2.30;;
17953;SDS011;9102;53.548;9.926;2022-10-16T01:47:43;6.90;;;2.20;;
17953;SDS011;9102;53.548;9.926;2022-10-16T01:50:10;6.10;;;2.00;;
17953;SDS011;9102;53.548;9.926;2022-10-16T01:52:40;5.53;;;2.05;;
17953;SDS011;9102;53.548;9.926;2022-10-16T01:55:10;6.82;;;2.30;;
17953;SDS011;9102;53.548;9.926;2022-10-16T01:57:42;6.45;;;2.60;;
17953;SDS011;9102;53.548;9.926;2022-10-16T02:00:13;7.28;;;3.25;;
17953;SDS011;9102;53.548;9.926;2022-10-16T02:02:43;6.47;;;2.80;;
17953;SDS011;9102;53.548;9.926;2022-10-16T02:05:15;7.45;;;2.85;;
17953;SDS011;9102;53.548;9.926;2022-10-16T02:07:46;5.60;;;2.55;;
17953;SDS011;9102;53.548;9.926;2022-10-16T02:10:13;9.45;;;2.70;;
17953;SDS011;9102;53.548;9.926;2022-10-16T02:12:43;6.32;;;2.60;;
17953;SDS011;9102;53.548;9.926;2022-10-16T02:15:14;6.22;;;2.22;;
17953;SDS011;9102;53.548;9.926;2022-10-16T02:17:41;7.57;;;2.30;;
17953;SDS011;9102;53.548;9.926;2022-10-16T02:20:08;6.45;;;2.45;;
17953;SDS011;9102;53.548;9.926;2022-10-16T02:22:36;4.88;;;1.98;;
17953;SDS011;9102;53.548;9.926;2022-10-16T02:25:06;6.13;;;2.17;;
17953;SDS011;9102;53.548;9.926;2022-10-16T02:27:37;5.35;;;2.13;;
17953;SDS011;9102;53.548;9.926;2022-10-16T02:30:11;7.75;;;2.10;;
17953;SDS011;9102;53.548;9.926;2022-10-16T02:32:43;4.93;;;1.95;;
17953;SDS011;9102;53.548;9.926;2022-10-16T02:35:13;5.20;;;1.95;;
17953;SDS011;9102;53.548;9.926;2022-10-16T02:37:42;3.47;;;1.60;;
17953;SDS011;9102;53.548;9.926;2022-10-16T02:40:09;4.88;;;1.83;;
17953;SDS011;9102;53.548;9.926;2022-10-16T02:42:38;4.15;;;1.52;;
17953;SDS011;9102;53.548;9.926;2022-10-16T02:45:06;8.05;;;1.77;;
17953;SDS011;9102;53.548;9.926;2022-10-16T02:47:36;8.40;;;2.28;;
17953;SDS011;9102;53.548;9.926;2022-10-16T02:50:03;5.30;;;1.63;;
17953;SDS011;9102;53.548;9.926;2022-10-16T02:52:31;6.72;;;1.95;;
17953;SDS011;9102;53.548;9.926;2022-10-16T02:54:57;6.70;;;2.13;;
17953;SDS011;9102;53.548;9.926;2022-10-16T02:57:24;6.22;;;2.28;;
17953;SDS011;9102;53.548;9.926;2022-10-16T02:59:51;5.60;;;2.30;;
17953;SDS011;9102;53.548;9.926;2022-10-16T03:02:18;5.18;;;2.00;;
17953;SDS011;9102;53.548;9.926;2022-10-16T03:04:46;4.90;;;2.00;;
17953;SDS011;9102;53.548;9.926;2022-10-16T03:07:13;3.80;;;1.80;;
17953;SDS011;9102;53.548;9.926;2022-10-16T03:09:40;8.20;;;2.20;;
17953;SDS011;9102;53.548;9.926;2022-10-16T03:12:06;7.28;;;2.38;;
17953;SDS011;9102;53.548;9.926;2022-10-16T03:14:33;8.50;;;2.53;;
17953;SDS011;9102;53.548;9.926;2022-10-16T03:17:00;8.50;;;3.80;;
17953;SDS011;9102;53.548;9.926;2022-10-16T03:19:27;5.95;;;3.28;;
17953;SDS011;9102;53.548;9.926;2022-10-16T03:21:55;6.88;;;3.10;;
17953;SDS011;9102;53.548;9.926;2022-10-16T03:24:22;5.07;;;2.35;;
17953;SDS011;9102;53.548;9.926;2022-10-16T03:26:49;5.93;;;2.80;;
17953;SDS011;9102;53.548;9.926;2022-10-16T03:29:15;12.65;;;3.53;;
17953;SDS011;9102;53.548;9.926;2022-10-16T03:31:42;5.05;;;2.08;;
17953;SDS011;9102;53.548;9.926;2022-10-16T03:34:09;7.43;;;2.58;;
17953;SDS011;9102;53.548;9.926;2022-10-16T03:36:36;10.90;;;3.10;;
17953;SDS011;9102;53.548;9.926;2022-10-16T03:39:04;4.57;;;2.15;;
17953;SDS011;9102;53.548;9.926;2022-10-16T03:41:31;5.95;;;2.50;;
17953;SDS011;9102;53.548;9.926;2022-10-16T03:43:57;8.95;;;2.20;;
17953;SDS011;9102;53.548;9.926;2022-10-16T03:46:24;6.38;;;2.33;;
17953;SDS011;9102;53.548;9.926;2022-10-16T03:48:51;8.07;;;2.83;;
17953;SDS011;9102;53.548;9.926;2022-10-16T03:51:18;7.78;;;2.15;;
17953;SDS011;9102;53.548;9.926;2022-10-16T03:53:44;7.15;;;2.28;;
17953;SDS011;9102;53.548;9.926;2022-10-16T03:56:13;5.78;;;2.13;;
17953;SDS011;9102;53.548;9.926;2022-10-16T03:58:39;7.78;;;2.15;;
17953;SDS011;9102;53.548;9.926;2022-10-16T04:01:06;4.70;;;2.10;;
17953;SDS011;9102;53.548;9.926;2022-10-16T04:03:33;6.88;;;2.42;;
17953;SDS011;9102;53.548;9.926;2022-10-16T04:06:00;7.30;;;2.08;;
17953;SDS011;9102;53.548;9.926;2022-10-16T04:08:27;5.35;;;2.35;;
17953;SDS011;9102;53.548;9.926;2022-10-16T04:10:54;7.10;;;2.67;;
17953;SDS011;9102;53.548;9.926;2022-10-16T04:13:22;8.32;;;3.33;;
17953;SDS011;9102;53.548;9.926;2022-10-16T04:15:48;4.65;;;2.30;;
17953;SDS011;9102;53.548;9.926;2022-10-16T04:18:15;4.60;;;2.38;;
17953;SDS011;9102;53.548;9.926;2022-10-16T04:20:42;7.35;;;2.67;;
17953;SDS011;9102;53.548;9.926;2022-10-16T04:23:09;8.98;;;2.47;;
17953;SDS011;9102;53.548;9.926;2022-10-16T04:25:36;6.95;;;2.75;;
17953;SDS011;9102;53.548;9.926;2022-10-16T04:28:03;7.03;;;2.58;;
17953;SDS011;9102;53.548;9.926;2022-10-16T04:30:31;6.40;;;2.63;;
17953;SDS011;9102;53.548;9.926;2022-10-16T04:32:58;8.15;;;2.70;;
17953;SDS011;9102;53.548;9.926;2022-10-16T04:35:25;7.70;;;3.10;;
17953;SDS011;9102;53.548;9.926;2022-10-16T04:37:52;5.75;;;2.95;;
17953;SDS011;9102;53.548;9.926;2022-10-16T04:40:18;10.43;;;3.03;;
17953;SDS011;9102;53.548;9.926;2022-10-16T04:42:45;5.55;;;2.53;;
17953;SDS011;9102;53.548;9.926;2022-10-16T04:45:12;5.95;;;3.08;;
17953;SDS011;9102;53.548;9.926;2022-10-16T04:47:40;10.15;;;3.72;;
17953;SDS011;9102;53.548;9.926;2022-10-16T04:50:07;7.13;;;3.28;;
17953;SDS011;9102;53.548;9.926;2022-10-16T04:52:34;6.97;;;3.47;;
17953;SDS011;9102;53.548;9.926;2022-10-16T04:55:01;6.63;;;3.42;;
17953;SDS011;9102;53.548;9.926;2022-10-16T04:57:28;8.27;;;3.47;;
17953;SDS011;9102;53.548;9.926;2022-10-16T04:59:55;7.78;;;3.72;;
17953;SDS011;9102;53.548;9.926;2022-10-16T05:02:22;11.07;;;4.65;;
17953;SDS011;9102;53.548;9.926;2022-10-16T05:04:50;12.32;;;4.25;;
17953;SDS011;9102;53.548;9.926;2022-10-16T05:07:17;9.00;;;3.58;;
17953;SDS011;9102;53.548;9.926;2022-10-16T05:09:44;7.82;;;3.95;;
17953;SDS011;9102;53.548;9.926;2022-10-16T05:12:11;8.40;;;3.60;;
17953;SDS011;9102;53.548;9.926;2022-10-16T05:14:37;10.52;;;3.92;;
17953;SDS011;9102;53.548;9.926;2022-10-16T05:17:04;11.98;;;3.75;;
17953;SDS011;9102;53.548;9.926;2022-10-16T05:19:31;9.00;;;4.03;;
17953;SDS011;9102;53.548;9.926;2022-10-16T05:21:59;8.35;;;4.22;;
17953;SDS011;9102;53.548;9.926;2022-10-16T05:24:26;9.32;;;3.97;;
17953;SDS011;9102;53.548;9.926;2022-10-16T05:26:53;9.00;;;4.40;;
17953;SDS011;9102;53.548;9.926;2022-10-16T05:29:20;10.18;;;3.92;;
17953;SDS011;9102;53.548;9.926;2022-10-16T05:31:49;7.97;;;4.25;;
17953;SDS011;9102;53.548;9.926;2022-10-16T05:34:16;9.63;;;4.03;;
17953;SDS011;9102;53.548;9.926;2022-10-16T05:36:43;9.02;;;3.97;;
17953;SDS011;9102;53.548;9.926;2022-10-16T05:39:13;9.27;;;4.00;;
17953;SDS011;9102;53.548;9.926;2022-10-16T05:41:40;14.63;;;4.00;;
17953;SDS011;9102;53.548;9.926;2022-10-16T05:44:07;7.38;;;3.80;;
17953;SDS011;9102;53.548;9.926;2022-10-16T05:46:34;9.68;;;3.42;;
17953;SDS011;9102;53.548;9.926;2022-10-16T05:49:01;8.07;;;3.42;;
17953;SDS011;9102;53.548;9.926;2022-10-16T05:51:28;10.43;;;2.70;;
17953;SDS011;9102;53.548;9.926;2022-10-16T05:53:54;6.13;;;2.78;;
17953;SDS011;9102;53.548;9.926;2022-10-16T05:56:23;7.95;;;2.90;;
17953;SDS011;9102;53.548;9.926;2022-10-16T05:58:49;6.88;;;2.88;;
17953;SDS011;9102;53.548;9.926;2022-10-16T06:01:17;8.75;;;2.55;;
17953;SDS011;9102;53.548;9.926;2022-10-16T06:03:45;7.75;;;3.25;;
17953;SDS011;9102;53.548;9.926;2022-10-16T06:06:13;6.07;;;2.67;;
17953;SDS011;9102;53.548;9.926;2022-10-16T06:08:42;8.75;;;2.90;;
17953;SDS011;9102;53.548;9.926;2022-10-16T06:11:12;9.38;;;2.90;;
17953;SDS011;9102;53.548;9.926;2022-10-16T06:13:41;7.30;;;2.70;;
17953;SDS011;9102;53.548;9.926;2022-10-16T06:16:11;6.53;;;3.28;;
17953;SDS011;9102;53.548;9.926;2022-10-16T06:18:38;7.15;;;3.05;;
17953;SDS011;9102;53.548;9.926;2022-10-16T06:21:07;7.50;;;2.58;;
17953;SDS011;9102;53.548;9.926;2022-10-16T06:23:35;6.93;;;2.90;;
17953;SDS011;9102;53.548;9.926;2022-10-16T06:26:06;4.35;;;2.10;;
17953;SDS011;9102;53.548;9.926;2022-10-16T06:28:33;9.30;;;2.50;;
17953;SDS011;9102;53.548;9.926;2022-10-16T06:31:02;7.82;;;2.50;;
17953;SDS011;9102;53.548;9.926;2022-10-16T06:33:30;8.48;;;2.70;;
17953;SDS011;9102;53.548;9.926;2022-10-16T06:36:00;7.47;;;3.03;;
17953;SDS011;9102;53.548;9.926;2022-10-16T06:38:28;7.20;;;2.95;;
17953;SDS011;9102;53.548;9.926;2022-10-16T06:40:54;5.85;;;2.33;;
17953;SDS011;9102;53.548;9.926;2022-10-16T06:43:21;4.53;;;2.45;;
17953;SDS011;9102;53.548;9.926;2022-10-16T06:45:50;7.38;;;2.97;;
17953;SDS011;9102;53.548;9.926;2022-10-16T06:48:19;8.55;;;2.80;;
17953;SDS011;9102;53.548;9.926;2022-10-16T06:50:54;9.10;;;2.70;;
17953;SDS011;9102;53.548;9.926;2022-10-16T06:53:22;6.88;;;2.65;;
17953;SDS011;9102;53.548;9.926;2022-10-16T06:55:49;6.03;;;2.92;;
17953;SDS011;9102;53.548;9.926;2022-10-16T06:58:16;8.85;;;3.50;;
17953;SDS011;9102;53.548;9.926;2022-10-16T07:00:43;8.25;;;2.83;;
17953;SDS011;9102;53.548;9.926;2022-10-16T07:03:09;9.13;;;3.78;;
17953;SDS011;9102;53.548;9.926;2022-10-16T07:05:38;8.85;;;3.55;;
17953;SDS011;9102;53.548;9.926;2022-10-16T07:08:05;7.20;;;3.05;;
17953;SDS011;9102;53.548;9.926;2022-10-16T07:10:32;16.40;;;4.82;;
17953;SDS011;9102;53.548;9.926;2022-10-16T07:12:59;7.50;;;3.20;;
17953;SDS011;9102;53.548;9.926;2022-10-16T07:15:26;10.57;;;3.80;;
17953;SDS011;9102;53.548;9.926;2022-10-16T07:17:53;8.10;;;3.38;;
17953;SDS011;9102;53.548;9.926;2022-10-16T07:20:20;5.47;;;3.25;;
17953;SDS011;9102;53.548;9.926;2022-10-16T07:22:48;7.78;;;3.35;;
17953;SDS011;9102;53.548;9.926;2022-10-16T07:25:15;6.18;;;3.22;;
17953;SDS011;9102;53.548;9.926;2022-10-16T07:27:42;6.78;;;3.15;;
17953;SDS011;9102;53.548;9.926;2022-10-16T07:30:09;11.38;;;3.50;;
17953;SDS011;9102;53.548;9.926;2022-10-16T07:32:36;7.07;;;3.20;;
17953;SDS011;9102;53.548;9.926;2022-10-16T07:35:04;7.35;;;3.50;;
17953;SDS011;9102;53.548;9.926;2022-10-16T07:37:31;10.30;;;3.08;;
17953;SDS011;9102;53.548;9.926;2022-10-16T07:39:59;5.82;;;3.15;;
17953;SDS011;9102;53.548;9.926;2022-10-16T07:42:26;7.30;;;2.95;;
17953;SDS011;9102;53.548;9.926;2022-10-16T07:44:53;7.25;;;3.03;;
17953;SDS011;9102;53.548;9.926;2022-10-16T07:47:20;6.13;;;3.13;;
17953;SDS011;9102;53.548;9.926;2022-10-16T07:49:47;5.32;;;2.88;;
17953;SDS011;9102;53.548;9.926;2022-10-16T07:52:14;5.40;;;3.05;;
17953;SDS011;9102;53.548;9.926;2022-10-16T07:54:41;7.03;;;2.83;;
17953;SDS011;9102;53.548;9.926;2022-10-16T07:57:09;5.10;;;2.90;;
17953;SDS011;9102;53.548;9.926;2022-10-16T07:59:36;5.50;;;2.90;;
17953;SDS011;9102;53.548;9.926;2022-10-16T08:02:02;7.75;;;4.35;;
17953;SDS011;9102;53.548;9.926;2022-10-16T08:04:29;8.45;;;3.72;;
17953;SDS011;9102;53.548;9.926;2022-10-16T08:06:56;6.15;;;2.80;;
17953;SDS011;9102;53.548;9.926;2022-10-16T08:09:23;6.80;;;3.13;;
17953;SDS011;9102;53.548;9.926;2022-10-16T08:11:50;5.10;;;3.15;;
17953;SDS011;9102;53.548;9.926;2022-10-16T08:14:19;6.68;;;3.50;;
17953;SDS011;9102;53.548;9.926;2022-10-16T08:16:45;5.40;;;3.17;;
17953;SDS011;9102;53.548;9.926;2022-10-16T08:19:12;6.43;;;3.20;;
17953;SDS011;9102;53.548;9.926;2022-10-16T08:21:40;5.78;;;3.08;;
17953;SDS011;9102;53.548;9.926;2022-10-16T08:24:07;8.38;;;3.10;;
17953;SDS011;9102;53.548;9.926;2022-10-16T08:26:34;5.60;;;3.00;;
17953;SDS011;9102;53.548;9.926;2022-10-16T08:29:01;6.60;;;3.28;;
17953;SDS011;9102;53.548;9.926;2022-10-16T08:31:29;6.25;;;3.00;;
17953;SDS011;9102;53.548;9.926;2022-10-16T08:33:56;4.82;;;2.88;;
17953;SDS011;9102;53.548;9.926;2022-10-16T08:36:23;7.15;;;2.60;;
17953;SDS011;9102;53.548;9.926;2022-10-16T08:38:50;6.00;;;3.08;;
17953;SDS011;9102;53.548;9.926;2022-10-16T08:41:32;8.90;;;2.70;;
17953;SDS011;9102;53.548;9.926;2022-10-16T08:44:22;6.25;;;3.08;;
17953;SDS011;9102;53.548;9.926;2022-10-16T08:47:05;6.65;;;2.92;;
17953;SDS011;9102;53.548;9.926;2022-10-16T08:49:39;6.03;;;2.75;;
17953;SDS011;9102;53.548;9.926;2022-10-16T08:52:10;4.35;;;2.42;;
17953;SDS011;9102;53.548;9.926;2022-10-16T08:54:40;8.57;;;2.60;;
17953;SDS011;9102;53.548;9.926;2022-10-16T08:57:09;3.65;;;2.42;;
17953;SDS011;9102;53.548;9.926;2022-10-16T08:59:39;3.35;;;2.30;;
17953;SDS011;9102;53.548;9.926;2022-10-16T09:02:16;5.13;;;2.35;;
17953;SDS011;9102;53.548;9.926;2022-10-16T09:04:54;5.80;;;2.10;;
17953;SDS011;9102;53.548;9.926;2022-10-16T09:07:30;7.10;;;2.17;;
17953;SDS011;9102;53.548;9.926;2022-10-16T09:10:08;4.43;;;1.75;;
17953;SDS011;9102;53.548;9.926;2022-10-16T09:12:44;4.15;;;1.60;;
17953;SDS011;9102;53.548;9.926;2022-10-16T09:15:21;8.40;;;2.00;;
17953;SDS011;9102;53.548;9.926;2022-10-16T09:17:58;4.57;;;1.80;;
17953;SDS011;9102;53.548;9.926;2022-10-16T09:20:32;6.85;;;2.00;;
17953;SDS011;9102;53.548;9.926;2022-10-16T09:25:52;4.95;;;1.77;;
17953;SDS011;9102;53.548;9.926;2022-10-16T09:28:21;2.90;;;1.52;;
17953;SDS011;9102;53.548;9.926;2022-10-16T09:30:48;3.45;;;1.30;;
17953;SDS011;9102;53.548;9.926;2022-10-16T09:33:19;6.15;;;1.58;;
17953;SDS011;9102;53.548;9.926;2022-10-16T09:35:50;3.47;;;1.55;;
17953;SDS011;9102;53.548;9.926;2022-10-16T09:38:23;6.43;;;1.25;;
17953;SDS011;9102;53.548;9.926;2022-10-16T09:40:51;2.67;;;1.30;;
17953;SDS011;9102;53.548;9.926;2022-10-16T09:43:20;7.93;;;1.70;;
17953;SDS011;9102;53.548;9.926;2022-10-16T09:45:54;4.10;;;1.38;;
17953;SDS011;9102;53.548;9.926;2022-10-16T09:48:23;5.20;;;1.30;;
17953;SDS011;9102;53.548;9.926;2022-10-16T09:50:56;2.97;;;1.10;;
17953;SDS011;9102;53.548;9.926;2022-10-16T09:53:23;4.18;;;1.23;;
17953;SDS011;9102;53.548;9.926;2022-10-16T09:56:01;6.22;;;1.70;;
17953;SDS011;9102;53.548;9.926;2022-10-16T09:58:30;7.05;;;1.50;;
17953;SDS011;9102;53.548;9.926;2022-10-16T10:00:58;7.47;;;2.05;;
17953;SDS011;9102;53.548;9.926;2022-10-16T10:03:33;3.72;;;1.33;;
17953;SDS011;9102;53.548;9.926;2022-10-16T10:06:03;3.78;;;1.38;;
17953;SDS011;9102;53.548;9.926;2022-10-16T10:08:51;7.63;;;1.77;;
17953;SDS011;9102;53.548;9.926;2022-10-16T10:11:42;4.88;;;1.77;;
17953;SDS011;9102;53.548;9.926;2022-10-16T10:14:24;3.25;;;1.55;;
17953;SDS011;9102;53.548;9.926;2022-10-16T10:17:15;7.57;;;1.60;;
17953;SDS011;9102;53.548;9.926;2022-10-16T10:19:48;5.32;;;1.38;;
17953;SDS011;9102;53.548;9.926;2022-10-16T10:22:24;3.35;;;1.45;;
17953;SDS011;9102;53.548;9.926;2022-10-16T10:27:59;5.90;;;1.48;;
17953;SDS011;9102;53.548;9.926;2022-10-16T10:30:37;3.85;;;1.35;;
17953;SDS011;9102;53.548;9.926;2022-10-16T10:33:13;4.03;;;1.48;;
17953;SDS011;9102;53.548;9.926;2022-10-16T10:35:53;3.83;;;1.20;;
17953;SDS011;9102;53.548;9.926;2022-10-16T10:38:28;4.38;;;1.30;;
17953;SDS011;9102;53.548;9.926;2022-10-16T10:41:13;4.32;;;1.15;;
17953;SDS011;9102;53.548;9.926;2022-10-16T10:43:58;3.80;;;1.05;;
17953;SDS011;9102;53.548;9.926;2022-10-16T10:46:32;3.72;;;1.20;;
17953;SDS011;9102;53.548;9.926;2022-10-16T10:49:10;2.35;;;0.68;;
17953;SDS011;9102;53.548;9.926;2022-10-16T10:51:53;2.97;;;0.90;;
17953;SDS011;9102;53.548;9.926;2022-10-16T10:54:34;5.32;;;1.00;;
17953;SDS011;9102;53.548;9.926;2022-10-16T10:57:08;5.65;;;1.30;;
17953;SDS011;9102;53.548;9.926;2022-10-16T10:59:57;3.90;;;0.90;;
17953;SDS011;9102;53.548;9.926;2022-10-16T11:02:32;2.25;;;0.80;;
17953;SDS011;9102;53.548;9.926;2022-10-16T11:05:14;4.10;;;0.93;;
17953;SDS011;9102;53.548;9.926;2022-10-16T11:07:59;3.42;;;1.13;;
17953;SDS011;9102;53.548;9.926;2022-10-16T11:10:28;3.05;;;0.70;;
17953;SDS011;9102;53.548;9.926;2022-10-16T11:13:10;4.32;;;1.10;;
17953;SDS011;9102;53.548;9.926;2022-10-16T11:15:45;4.95;;;0.82;;
17953;SDS011;9102;53.548;9.926;2022-10-16T11:18:18;4.57;;;0.90;;
17953;SDS011;9102;53.548;9.926;2022-10-16T11:20:49;6.30;;;1.00;;
17953;SDS011;9102;53.548;9.926;2022-10-16T11:23:21;5.30;;;1.02;;
17953;SDS011;9102;53.548;9.926;2022-10-16T11:25:52;6.97;;;1.02;;
17953;SDS011;9102;53.548;9.926;2022-10-16T11:28:23;3.25;;;0.85;;
17953;SDS011;9102;53.548;9.926;2022-10-16T11:30:54;6.57;;;1.00;;
17953;SDS011;9102;53.548;9.926;2022-10-16T11:33:27;3.83;;;0.80;;
17953;SDS011;9102;53.548;9.926;2022-10-16T11:36:02;2.47;;;0.70;;
17953;SDS011;9102;53.548;9.926;2022-10-16T11:38:37;2.47;;;0.65;;
17953;SDS011;9102;53.548;9.926;2022-10-16T11:41:10;2.42;;;0.65;;
17953;SDS011;9102;53.548;9.926;2022-10-16T11:43:46;4.50;;;0.70;;
17953;SDS011;9102;53.548;9.926;2022-10-16T11:46:19;4.10;;;1.13;;
17953;SDS011;9102;53.548;9.926;2022-10-16T11:48:50;7.13;;;0.90;;
17953;SDS011;9102;53.548;9.926;2022-10-16T11:51:23;5.05;;;0.90;;
17953;SDS011;9102;53.548;9.926;2022-10-16T11:53:59;4.68;;;0.82;;
17953;SDS011;9102;53.548;9.926;2022-10-16T11:56:31;5.88;;;1.20;;
17953;SDS011;9102;53.548;9.926;2022-10-16T11:59:00;6.38;;;1.10;;
17953;SDS011;9102;53.548;9.926;2022-10-16T12:01:31;4.95;;;0.88;;
17953;SDS011;9102;53.548;9.926;2022-10-16T12:04:06;3.17;;;0.75;;
17953;SDS011;9102;53.548;9.926;2022-10-16T12:06:43;5.50;;;1.13;;
17953;SDS011;9102;53.548;9.926;2022-10-16T12:09:16;5.03;;;1.10;;
17953;SDS011;9102;53.548;9.926;2022-10-16T12:11:48;6.75;;;1.00;;
17953;SDS011;9102;53.548;9.926;2022-10-16T12:14:20;4.30;;;1.25;;
17953;SDS011;9102;53.548;9.926;2022-10-16T12:17:00;4.15;;;1.00;;
17953;SDS011;9102;53.548;9.926;2022-10-16T12:19:30;5.60;;;1.20;;
17953;SDS011;9102;53.548;9.926;2022-10-16T12:21:58;3.25;;;0.95;;
17953;SDS011;9102;53.548;9.926;2022-10-16T12:24:34;9.57;;;1.00;;
17953;SDS011;9102;53.548;9.926;2022-10-16T12:27:06;6.47;;;1.10;;
17953;SDS011;9102;53.548;9.926;2022-10-16T12:29:54;5.63;;;1.17;;
17953;SDS011;9102;53.548;9.926;2022-10-16T12:32:23;7.00;;;1.10;;
17953;SDS011;9102;53.548;9.926;2022-10-16T12:34:55;6.07;;;1.45;;
17953;SDS011;9102;53.548;9.926;2022-10-16T12:37:24;8.18;;;1.10;;
17953;SDS011;9102;53.548;9.926;2022-10-16T12:39:54;5.55;;;1.00;;
17953;SDS011;9102;53.548;9.926;2022-10-16T12:42:23;4.07;;;0.80;;
17953;SDS011;9102;53.548;9.926;2022-10-16T12:44:59;3.00;;;0.70;;
17953;SDS011;9102;53.548;9.926;2022-10-16T12:47:37;3.08;;;0.82;;
17953;SDS011;9102;53.548;9.926;2022-10-16T12:53:00;4.15;;;0.90;;
17953;SDS011;9102;53.548;9.926;2022-10-16T12:55:32;4.63;;;1.10;;
17953;SDS011;9102;53.548;9.926;2022-10-16T12:58:16;5.43;;;1.00;;
17953;SDS011;9102;53.548;9.926;2022-10-16T13:01:03;3.58;;;1.10;;
17953;SDS011;9102;53.548;9.926;2022-10-16T13:03:43;4.50;;;0.82;;
17953;SDS011;9102;53.548;9.926;2022-10-16T13:06:28;6.28;;;1.13;;
17953;SDS011;9102;53.548;9.926;2022-10-16T13:09:02;2.85;;;0.80;;
17953;SDS011;9102;53.548;9.926;2022-10-16T13:11:46;6.35;;;1.20;;
17953;SDS011;9102;53.548;9.926;2022-10-16T13:14:31;5.72;;;0.80;;
17953;SDS011;9102;53.548;9.926;2022-10-16T13:17:10;8.57;;;1.30;;
17953;SDS011;9102;53.548;9.926;2022-10-16T13:19:45;5.65;;;1.35;;
17953;SDS011;9102;53.548;9.926;2022-10-16T13:22:20;4.55;;;1.17;;
17953;SDS011;9102;53.548;9.926;2022-10-16T13:24:54;5.90;;;1.08;;
17953;SDS011;9102;53.548;9.926;2022-10-16T13:27:32;4.88;;;1.20;;
17953;SDS011;9102;53.548;9.926;2022-10-16T13:30:09;3.45;;;1.00;;
17953;SDS011;9102;53.548;9.926;2022-10-16T13:32:39;8.68;;;1.13;;
17953;SDS011;9102;53.548;9.926;2022-10-16T13:35:18;5.18;;;1.30;;
17953;SDS011;9102;53.548;9.926;2022-10-16T13:37:46;4.75;;;1.00;;
17953;SDS011;9102;53.548;9.926;2022-10-16T13:40:18;6.10;;;1.05;;
17953;SDS011;9102;53.548;9.926;2022-10-16T13:42:47;4.65;;;0.95;;
17953;SDS011;9102;53.548;9.926;2022-10-16T13:45:18;8.98;;;1.33;;
17953;SDS011;9102;53.548;9.926;2022-10-16T13:47:46;4.93;;;0.80;;
17953;SDS011;9102;53.548;9.926;2022-10-16T13:50:13;6.03;;;1.10;;
17953;SDS011;9102;53.548;9.926;2022-10-16T13:52:42;4.43;;;0.77;;
17953;SDS011;9102;53.548;9.926;2022-10-16T13:55:10;4.68;;;0.88;;
17953;SDS011;9102;53.548;9.926;2022-10-16T13:57:38;3.33;;;0.90;;
17953;SDS011;9102;53.548;9.926;2022-10-16T14:00:18;3.40;;;0.80;;
17953;SDS011;9102;53.548;9.926;2022-10-16T14:02:50;5.18;;;1.10;;
17953;SDS011;9102;53.548;9.926;2022-10-16T14:05:21;5.03;;;1.10;;
17953;SDS011;9102;53.548;9.926;2022-10-16T14:07:48;7.00;;;1.23;;
17953;SDS011;9102;53.548;9.926;2022-10-16T14:10:21;4.32;;;1.05;;
17953;SDS011;9102;53.548;9.926;2022-10-16T14:12:54;7.68;;;1.10;;
17953;SDS011;9102;53.548;9.926;2022-10-16T14:15:23;4.05;;;1.15;;
17953;SDS011;9102;53.548;9.926;2022-10-16T14:17:51;3.67;;;1.30;;
17953;SDS011;9102;53.548;9.926;2022-10-16T14:20:20;5.78;;;1.00;;
17953;SDS011;9102;53.548;9.926;2022-10-16T14:22:49;4.05;;;0.82;;
17953;SDS011;9102;53.548;9.926;2022-10-16T14:25:26;2.95;;;1.30;;
17953;SDS011;9102;53.548;9.926;2022-10-16T14:27:58;5.63;;;1.30;;
17953;SDS011;9102;53.548;9.926;2022-10-16T14:30:28;6.90;;;1.52;;
17953;SDS011;9102;53.548;9.926;2022-10-16T14:32:56;4.35;;;0.90;;
17953;SDS011;9102;53.548;9.926;2022-10-16T14:35:28;5.20;;;1.30;;
17953;SDS011;9102;53.548;9.926;2022-10-16T14:37:57;2.97;;;0.65;;
17953;SDS011;9102;53.548;9.926;2022-10-16T14:40:26;5.35;;;0.80;;
17953;SDS011;9102;53.548;9.926;2022-10-16T14:42:55;7.57;;;0.90;;
17953;SDS011;9102;53.548;9.926;2022-10-16T14:45:23;4.05;;;0.88;;
17953;SDS011;9102;53.548;9.926;2022-10-16T14:47:55;6.00;;;1.02;;
17953;SDS011;9102;53.548;9.926;2022-10-16T14:50:23;6.43;;;0.80;;
17953;SDS011;9102;53.548;9.926;2022-10-16T14:52:50;3.13;;;0.93;;
17953;SDS011;9102;53.548;9.926;2022-10-16T14:55:17;5.18;;;0.80;;
17953;SDS011;9102;53.548;9.926;2022-10-16T14:57:44;6.38;;;1.30;;
17953;SDS011;9102;53.548;9.926;2022-10-16T15:00:15;2.78;;;0.82;;
17953;SDS011;9102;53.548;9.926;2022-10-16T15:02:44;4.82;;;1.30;;
17953;SDS011;9102;53.548;9.926;2022-10-16T15:05:14;6.50;;;1.40;;
17953;SDS011;9102;53.548;9.926;2022-10-16T15:07:43;3.05;;;1.15;;
17953;SDS011;9102;53.548;9.926;2022-10-16T15:10:11;7.43;;;1.10;;
17953;SDS011;9102;53.548;9.926;2022-10-16T15:12:38;9.10;;;1.35;;
17953;SDS011;9102;53.548;9.926;2022-10-16T15:15:14;5.95;;;1.35;;
17953;SDS011;9102;53.548;9.926;2022-10-16T15:17:50;7.00;;;1.23;;
17953;SDS011;9102;53.548;9.926;2022-10-16T15:20:20;6.45;;;1.13;;
17953;SDS011;9102;53.548;9.926;2022-10-16T15:22:46;7.03;;;1.63;;
17953;SDS011;9102;53.548;9.926;2022-10-16T15:25:16;6.10;;;1.20;;
17953;SDS011;9102;53.548;9.926;2022-10-16T15:27:57;7.60;;;1.30;;
17953;SDS011;9102;53.548;9.926;2022-10-16T15:30:24;4.82;;;1.15;;